Time;durP1;ratioP1;P1;durP2;ratioP2;P2;SDS_P1;SDS_P2;PMS_P1;PMS_P2;Temp;Humidity;BMP_temperature;BMP_pressure;BME280_temperature;BME280_humidity;BME280_pressure;Samples;Min_cycle;Max_cycle;Signal;HPM_P1;HPM_P2
2021/12/18 00:01:55;;;;;;;;;;;;;;;6.87;100.00;104141.19;5020405;28;19921;-79
2021/12/18 00:04:21;;;;;;;;;;;;;;;6.86;100.00;104137.63;5045843;28;20455;-79
2021/12/18 00:06:46;;;;;;;;;;;;;;;6.86;100.00;104135.03;5034479;28;19917;-79
2021/12/18 00:09:14;;;;;;;;;;;;;;;6.85;100.00;104138.41;5018500;28;19917;-79
2021/12/18 00:11:39;;;;;;;;;;;;;;;6.86;100.00;104136.72;5030114;28;19913;-80
2021/12/18 00:14:04;;;;;;;;;;;;;;;6.85;100.00;104142.72;5036363;28;19916;-79
2021/12/18 00:16:32;;;;;;;;;;;;;;;6.86;100.00;104134.09;5035673;28;19958;-79
2021/12/18 00:18:59;;;;;;;;;;;;;;;6.84;100.00;104136.56;5020690;28;19920;-79
2021/12/18 00:21:25;;;;;;;;;;;;;;;6.86;100.00;104131.50;5026812;28;19924;-79
2021/12/18 00:23:50;;;;;;;;;;;;;;;6.88;100.00;104130.84;5039709;28;19944;-79
2021/12/18 00:26:16;;;;;;;;;;;;;;;6.88;100.00;104128.22;5036587;28;19928;-78
2021/12/18 00:28:41;;;;;;;;;;;;;;;6.84;100.00;104118.22;5026315;28;19924;-79
2021/12/18 00:31:07;;;;;;;;;;;;;;;6.85;100.00;104122.69;5027758;28;19943;-79
2021/12/18 00:33:32;;;;;;;;;;;;;;;6.90;100.00;104125.78;5035973;28;19916;-79
2021/12/18 00:35:57;;;;;;;;;;;;;;;6.92;100.00;104119.03;5054570;28;19971;-78
2021/12/18 00:38:29;;;;;;;;;;;;;;;6.91;100.00;104111.91;5035229;28;19928;-79
2021/12/18 00:41:26;;;;;;;;;;;;;;;6.93;100.00;104113.00;5022646;28;20030;-79
2021/12/18 00:44:02;;;;;;;;;;;;;;;6.91;100.00;104101.44;5031950;28;19924;-79
2021/12/18 00:46:37;;;;;;;;;;;;;;;6.92;100.00;104104.22;5018558;28;19917;-79
2021/12/18 00:49:05;;;;;;;;;;;;;;;6.93;100.00;104099.91;5035419;28;19959;-79
2021/12/18 00:51:31;;;;;;;;;;;;;;;6.90;100.00;104099.56;5032006;28;19917;-79
2021/12/18 00:53:56;;;;;;;;;;;;;;;6.89;100.00;104095.13;5026992;28;19924;-78
2021/12/18 00:56:22;;;;;;;;;;;;;;;6.86;100.00;104100.97;5020890;28;20491;-77
2021/12/18 00:58:49;;;;;;;;;;;;;;;6.89;100.00;104108.22;5029606;28;19932;-78
2021/12/18 01:01:14;;;;;;;;;;;;;;;6.86;100.00;104094.81;5054380;28;20046;-79
2021/12/18 01:03:42;;;;;;;;;;;;;;;6.86;100.00;104106.22;5020582;28;19916;-79
2021/12/18 01:06:07;;;;;;;;;;;;;;;6.88;100.00;104096.78;5056371;28;19917;-78
2021/12/18 01:08:34;;;;;;;;;;;;;;;6.87;100.00;104091.41;5023051;28;19947;-78
2021/12/18 01:13:44;;;;;;;;;;;;;;;6.90;100.00;104094.34;5056947;28;19924;-78
2021/12/18 01:16:17;;;;;;;;;;;;;;;6.92;100.00;104092.81;5032621;28;19917;-78
2021/12/18 01:24:12;;;;;;;;;;;;;;;6.88;100.00;104085.41;5038539;28;19928;-79
2021/12/18 01:26:37;;;;;;;;;;;;;;;6.93;100.00;104094.66;5022443;28;19921;-79
2021/12/18 01:29:03;;;;;;;;;;;;;;;6.93;100.00;104099.91;5035579;28;19923;-79
2021/12/18 01:31:29;;;;;;;;;;;;;;;6.90;100.00;104105.75;5039653;28;20009;-79
2021/12/18 01:33:54;;;;;;;;;;;;;;;6.90;100.00;104092.66;5028092;28;19948;-79
2021/12/18 01:36:20;;;;;;;;;;;;;;;6.89;100.00;104093.41;5031504;28;19924;-79
2021/12/18 01:38:46;;;;;;;;;;;;;;;6.91;100.00;104093.59;5056570;28;19917;-79
2021/12/18 01:41:11;;;;;;;;;;;;;;;6.91;100.00;104094.50;5037737;28;19913;-79
2021/12/18 01:51:25;;;;;;;;;;;;;;;6.93;100.00;104092.97;5051539;28;20276;-78
2021/12/18 01:53:52;;;;;;;;;;;;;;;6.93;100.00;104102.50;5030566;28;20329;-78
2021/12/18 01:56:18;;;;;;;;;;;;;;;6.91;100.00;104107.59;5018223;28;19917;-79
2021/12/18 01:58:45;;;;;;;;;;;;;;;6.92;100.00;104100.69;5028956;28;19916;-78
2021/12/18 02:01:10;;;;;;;;;;;;;;;6.91;100.00;104101.44;5033717;28;20048;-79
2021/12/18 02:03:36;;;;;;;;;;;;;;;6.90;100.00;104104.81;5037844;28;19950;-79
2021/12/18 02:06:01;;;;;;;;;;;;;;;6.93;100.00;104098.22;5037664;28;19928;-78
2021/12/18 02:08:29;;;;;;;;;;;;;;;6.86;100.00;104097.44;5037485;28;19948;-78
2021/12/18 02:11:01;;;;;;;;;;;;;;;6.85;100.00;104092.94;5027813;28;19921;-78
2021/12/18 02:13:47;;;;;;;;;;;;;;;6.82;100.00;104088.31;5018541;28;20015;-79
2021/12/18 02:21:41;;;;;;;;;;;;;;;6.88;100.00;104085.41;5055178;28;20374;-78
2021/12/18 02:24:06;;;;;;;;;;;;;;;6.86;100.00;104081.72;5038120;28;20023;-79
2021/12/18 02:26:32;;;;;;;;;;;;;;;6.89;100.00;104082.94;5020447;28;19983;-79
2021/12/18 02:29:02;;;;;;;;;;;;;;;6.90;100.00;104073.38;5035414;28;20105;-79
2021/12/18 02:31:28;;;;;;;;;;;;;;;6.83;100.00;104082.31;5055479;28;19943;-79
2021/12/18 02:33:53;;;;;;;;;;;;;;;6.83;100.00;104072.75;5023144;28;19913;-80
2021/12/18 02:36:23;;;;;;;;;;;;;;;6.81;100.00;104073.38;5018130;28;19924;-79
2021/12/18 02:44:02;;;;;;;;;;;;;;;6.85;100.00;104066.75;5042307;28;19967;-79
2021/12/18 02:46:28;;;;;;;;;;;;;;;6.83;100.00;104061.34;5018690;28;19928;-79
2021/12/18 02:48:55;;;;;;;;;;;;;;;6.85;100.00;104059.81;5036681;28;19916;-79
2021/12/18 02:51:21;;;;;;;;;;;;;;;6.86;100.00;104055.50;5025780;28;19942;-78
2021/12/18 02:53:49;;;;;;;;;;;;;;;6.81;100.00;104057.66;5026255;28;19979;-79
2021/12/18 02:56:15;;;;;;;;;;;;;;;6.82;100.00;104057.81;5036829;28;20277;-79
2021/12/18 02:58:42;;;;;;;;;;;;;;;6.81;100.00;104055.97;5036480;28;19952;-79
2021/12/18 03:01:08;;;;;;;;;;;;;;;6.85;100.00;104058.91;5036632;28;19924;-79
2021/12/18 03:03:37;;;;;;;;;;;;;;;6.80;100.00;104056.72;5035376;28;19963;-79
2021/12/18 03:24:35;;;;;;;;;;;;;;;6.70;100.00;104064.41;5040543;28;19917;-78
2021/12/18 03:27:00;;;;;;;;;;;;;;;6.72;100.00;104068.09;5036166;28;19917;-79
2021/12/18 03:29:27;;;;;;;;;;;;;;;6.69;100.00;104067.78;5016941;28;19923;-78
2021/12/18 03:31:52;;;;;;;;;;;;;;;6.71;100.00;104071.50;5036209;28;19958;-79
2021/12/18 03:34:17;;;;;;;;;;;;;;;6.70;100.00;104068.75;5036499;28;20341;-79
2021/12/18 03:36:43;;;;;;;;;;;;;;;6.69;100.00;104062.56;5018129;28;19962;-79
2021/12/18 03:39:09;;;;;;;;;;;;;;;6.67;100.00;104066.72;5030330;28;19920;-79
2021/12/18 03:41:35;;;;;;;;;;;;;;;6.65;100.00;104061.31;5003562;28;19921;-79
2021/12/18 03:44:01;;;;;;;;;;;;;;;6.62;100.00;104062.72;5028365;28;20268;-79
2021/12/18 03:46:26;;;;;;;;;;;;;;;6.61;100.00;104055.59;5019488;28;20257;-79
2021/12/18 03:48:52;;;;;;;;;;;;;;;6.62;100.00;104054.84;5016558;28;19923;-79
2021/12/18 03:51:17;;;;;;;;;;;;;;;6.66;100.00;104057.00;5017210;28;19952;-79
2021/12/18 03:53:42;;;;;;;;;;;;;;;6.60;100.00;104052.06;5022178;28;19924;-79
2021/12/18 03:56:07;;;;;;;;;;;;;;;6.62;100.00;104053.16;5017152;28;20017;-78
2021/12/18 03:58:33;;;;;;;;;;;;;;;6.60;100.00;104052.06;5021747;28;19923;-79
2021/12/18 04:00:58;;;;;;;;;;;;;;;6.51;100.00;104053.75;5024432;28;19975;-78
2021/12/18 04:03:23;;;;;;;;;;;;;;;6.50;100.00;104049.25;5025105;28;20034;-79
2021/12/18 04:05:49;;;;;;;;;;;;;;;6.49;100.00;104042.16;5036201;28;19923;-79
2021/12/18 04:08:27;;;;;;;;;;;;;;;6.50;100.00;104048.34;5028235;28;20420;-79
2021/12/18 04:10:53;;;;;;;;;;;;;;;6.46;100.00;104052.31;5020336;28;19913;-79
2021/12/18 04:13:18;;;;;;;;;;;;;;;6.39;100.00;104040.28;5023484;28;19947;-79
2021/12/18 04:15:43;;;;;;;;;;;;;;;6.42;100.00;104047.53;5021840;28;19913;-79
2021/12/18 04:18:14;;;;;;;;;;;;;;;6.41;100.00;104045.69;5026775;28;19916;-79
2021/12/18 04:20:39;;;;;;;;;;;;;;;6.50;100.00;104046.63;5035667;28;20070;-79
2021/12/18 04:23:05;;;;;;;;;;;;;;;6.46;100.00;104044.47;5031905;28;20452;-79
2021/12/18 04:25:30;;;;;;;;;;;;;;;6.46;100.00;104047.06;5020759;28;19917;-79
2021/12/18 04:27:57;;;;;;;;;;;;;;;6.45;100.00;104056.63;5026087;28;19967;-79
2021/12/18 04:30:23;;;;;;;;;;;;;;;6.47;100.00;104052.47;5030687;28;19917;-79
2021/12/18 04:32:48;;;;;;;;;;;;;;;6.45;100.00;104054.00;5039907;28;19928;-79
2021/12/18 04:35:13;;;;;;;;;;;;;;;6.40;100.00;104052.63;5027867;28;20312;-79
2021/12/18 04:37:40;;;;;;;;;;;;;;;6.40;100.00;104049.06;5040253;28;20138;-79
2021/12/18 04:40:06;;;;;;;;;;;;;;;6.38;100.00;104054.13;5026829;28;19923;-79
2021/12/18 04:42:31;;;;;;;;;;;;;;;6.35;100.00;104043.34;5040259;28;19916;-80
2021/12/18 04:44:56;;;;;;;;;;;;;;;6.32;100.00;104055.19;5038541;28;19943;-80
2021/12/18 04:47:22;;;;;;;;;;;;;;;6.33;100.00;104054.44;5036948;28;19925;-79
2021/12/18 04:49:48;;;;;;;;;;;;;;;6.32;100.00;104050.88;5037809;28;19927;-79
2021/12/18 04:52:13;;;;;;;;;;;;;;;6.27;100.00;104054.72;5021147;28;20007;-79
2021/12/18 04:54:39;;;;;;;;;;;;;;;6.22;100.00;104055.94;5036862;28;19917;-79
2021/12/18 04:57:04;;;;;;;;;;;;;;;6.18;100.00;104056.38;5057119;28;19917;-79
2021/12/18 04:59:29;;;;;;;;;;;;;;;6.20;100.00;104066.22;5023613;28;19917;-80
2021/12/18 05:01:54;;;;;;;;;;;;;;;6.15;100.00;104059.56;5035321;28;20031;-78
2021/12/18 05:04:20;;;;;;;;;;;;;;;6.11;100.00;104063.56;5038705;28;19960;-78
2021/12/18 05:06:47;;;;;;;;;;;;;;;6.08;100.00;104060.63;5038014;28;19916;-79
2021/12/18 05:09:14;;;;;;;;;;;;;;;6.13;100.00;104057.56;5036774;28;19921;-79
2021/12/18 05:11:40;;;;;;;;;;;;;;;6.09;100.00;104067.72;5024394;28;19940;-79
2021/12/18 05:14:06;;;;;;;;;;;;;;;6.04;100.00;104067.97;5019129;28;20244;-78
2021/12/18 05:16:31;;;;;;;;;;;;;;;6.09;100.00;104061.53;5021456;28;19917;-78
2021/12/18 05:18:57;;;;;;;;;;;;;;;6.09;100.00;104058.91;5022734;28;19920;-79
2021/12/18 05:21:23;;;;;;;;;;;;;;;6.00;100.00;104071.06;5022255;28;19923;-78
2021/12/18 05:23:48;;;;;;;;;;;;;;;5.95;100.00;104070.53;5018882;28;19999;-78
2021/12/18 05:26:14;;;;;;;;;;;;;;;5.77;100.00;104073.81;5018649;28;20534;-78
2021/12/18 05:28:39;;;;;;;;;;;;;;;5.71;100.00;104064.50;5028526;28;19917;-78
2021/12/18 05:31:04;;;;;;;;;;;;;;;5.69;100.00;104055.59;5036787;28;19912;-78
2021/12/18 05:33:30;;;;;;;;;;;;;;;5.74;100.00;104061.31;5020466;28;19917;-79
2021/12/18 05:35:55;;;;;;;;;;;;;;;5.80;100.00;104058.44;5019003;28;20349;-78
2021/12/18 05:38:20;;;;;;;;;;;;;;;5.85;100.00;104057.22;5034143;28;20039;-80
2021/12/18 05:40:45;;;;;;;;;;;;;;;5.84;100.00;104057.97;5038616;28;20054;-80
2021/12/18 05:43:11;;;;;;;;;;;;;;;5.82;100.00;104054.28;5032346;28;20012;-78
2021/12/18 05:45:37;;;;;;;;;;;;;;;5.70;100.00;104052.22;5028548;28;19921;-77
2021/12/18 05:48:05;;;;;;;;;;;;;;;5.68;100.00;104051.13;5019290;28;19921;-79
2021/12/18 05:50:30;;;;;;;;;;;;;;;5.59;100.00;104047.50;5024425;28;19917;-78
2021/12/18 05:52:58;;;;;;;;;;;;;;;5.58;100.00;104051.81;5022287;28;19924;-79
2021/12/18 05:55:25;;;;;;;;;;;;;;;5.54;100.00;104047.00;5033153;28;20015;-79
2021/12/18 05:57:50;;;;;;;;;;;;;;;5.54;100.00;104047.00;5019810;28;19917;-79
2021/12/18 06:00:16;;;;;;;;;;;;;;;5.53;100.00;104044.22;5018409;28;19924;-79
2021/12/18 06:02:41;;;;;;;;;;;;;;;5.52;100.00;104045.03;5018262;28;19917;-79
2021/12/18 06:05:10;;;;;;;;;;;;;;;5.51;100.00;104037.94;5022150;28;19923;-78
2021/12/18 06:08:02;;;;;;;;;;;;;;;5.48;100.00;104032.38;5019198;28;19948;-78
2021/12/18 06:10:29;;;;;;;;;;;;;;;5.36;100.00;104038.13;5050795;28;19952;-79
2021/12/18 06:12:55;;;;;;;;;;;;;;;5.34;100.00;104038.72;5023697;28;19955;-78
2021/12/18 06:15:20;;;;;;;;;;;;;;;5.18;100.00;104037.06;5022057;28;19920;-78
2021/12/18 06:17:46;;;;;;;;;;;;;;;5.10;100.00;104032.69;5029242;28;19924;-78
2021/12/18 06:20:12;;;;;;;;;;;;;;;5.05;100.00;104039.09;5029326;28;19924;-78
2021/12/18 06:22:37;;;;;;;;;;;;;;;5.02;100.00;104024.00;5037886;28;19917;-79
2021/12/18 06:25:03;;;;;;;;;;;;;;;4.98;100.00;104033.97;5037550;28;19916;-79
2021/12/18 06:27:29;;;;;;;;;;;;;;;4.97;100.00;104030.44;5029639;28;19927;-79
2021/12/18 06:29:54;;;;;;;;;;;;;;;4.90;100.00;104025.28;5019488;28;19917;-79
2021/12/18 06:32:20;;;;;;;;;;;;;;;4.90;100.00;104027.88;5017824;28;19924;-79
2021/12/18 06:34:45;;;;;;;;;;;;;;;4.93;100.00;104023.00;5017525;28;19974;-79
2021/12/18 06:37:10;;;;;;;;;;;;;;;4.87;100.00;104024.94;5051906;28;20300;-79
2021/12/18 06:39:35;;;;;;;;;;;;;;;4.94;100.00;104032.69;5035346;28;19923;-79
2021/12/18 06:42:00;;;;;;;;;;;;;;;4.98;100.00;104026.13;5037108;28;20047;-80
2021/12/18 06:44:26;;;;;;;;;;;;;;;5.01;100.00;104027.38;5031404;28;19970;-80
2021/12/18 06:46:52;;;;;;;;;;;;;;;4.98;100.00;104021.81;5017275;28;19968;-80
2021/12/18 06:49:18;;;;;;;;;;;;;;;4.92;100.00;104025.44;5019243;28;19920;-80
2021/12/18 06:51:43;;;;;;;;;;;;;;;4.94;100.00;104016.09;5017654;28;19917;-80
2021/12/18 06:54:09;;;;;;;;;;;;;;;4.97;100.00;104025.19;5018440;28;19994;-80
2021/12/18 06:56:34;;;;;;;;;;;;;;;5.00;100.00;104029.81;5017846;28;20018;-78
2021/12/18 06:58:59;;;;;;;;;;;;;;;5.04;100.00;104027.72;5028257;28;19924;-79
2021/12/18 07:01:24;;;;;;;;;;;;;;;4.99;100.00;104026.28;5034906;28;20003;-79
2021/12/18 07:03:49;;;;;;;;;;;;;;;4.87;100.00;104030.16;5046471;28;19916;-79
2021/12/18 07:06:15;;;;;;;;;;;;;;;4.74;100.00;104021.72;5023174;28;19921;-79
2021/12/18 07:08:47;;;;;;;;;;;;;;;4.71;100.00;104022.34;5029478;28;19927;-79
2021/12/18 07:11:15;;;;;;;;;;;;;;;4.73;100.00;104026.03;5017774;28;20368;-78
2021/12/18 07:13:40;;;;;;;;;;;;;;;4.72;100.00;104021.56;5018678;28;20261;-79
2021/12/18 07:16:06;;;;;;;;;;;;;;;4.78;100.00;104024.84;5018795;28;19917;-79
2021/12/18 07:18:31;;;;;;;;;;;;;;;4.81;100.00;104019.03;5030851;28;19924;-79
2021/12/18 07:20:57;;;;;;;;;;;;;;;4.81;100.00;104022.56;5030416;28;19919;-78
2021/12/18 07:23:24;;;;;;;;;;;;;;;4.76;100.00;104025.44;5031296;28;19928;-78
2021/12/18 07:25:49;;;;;;;;;;;;;;;4.82;100.00;104020.91;5017147;28;19928;-79
2021/12/18 07:28:19;;;;;;;;;;;;;;;4.80;100.00;104030.22;5035082;28;20650;-79
2021/12/18 07:30:44;;;;;;;;;;;;;;;4.80;100.00;104025.00;5023885;28;19917;-78
2021/12/18 07:33:11;;;;;;;;;;;;;;;4.75;100.00;104032.34;5032413;28;19942;-77
2021/12/18 07:35:46;;;;;;;;;;;;;;;4.79;100.00;104028.41;5024956;28;19963;-78
2021/12/18 07:38:16;;;;;;;;;;;;;;;4.69;100.00;104016.00;5023794;28;19929;-76
2021/12/18 07:40:42;;;;;;;;;;;;;;;4.70;100.00;104023.06;5048516;28;19916;-78
2021/12/18 07:43:07;;;;;;;;;;;;;;;4.61;100.00;104022.97;5022550;28;19923;-78
2021/12/18 07:45:34;;;;;;;;;;;;;;;4.70;100.00;104022.16;5023434;28;19924;-78
2021/12/18 07:48:00;;;;;;;;;;;;;;;4.71;100.00;104024.94;5020266;28;19917;-78
2021/12/18 07:50:25;;;;;;;;;;;;;;;4.64;100.00;104018.09;5034670;28;19917;-79
2021/12/18 07:52:51;;;;;;;;;;;;;;;4.61;100.00;104022.06;5020337;28;19916;-79
2021/12/18 07:55:17;;;;;;;;;;;;;;;4.64;100.00;104020.69;5053202;28;20368;-77
2021/12/18 07:57:45;;;;;;;;;;;;;;;4.56;100.00;104021.53;5031332;28;19917;-78
2021/12/18 08:00:12;;;;;;;;;;;;;;;4.53;100.00;104029.03;5035944;28;20500;-78
2021/12/18 08:02:37;;;;;;;;;;;;;;;4.50;100.00;104033.91;5032104;28;20000;-78
2021/12/18 08:05:03;;;;;;;;;;;;;;;4.52;100.00;104024.56;5025820;28;20281;-78
2021/12/18 08:07:28;;;;;;;;;;;;;;;4.49;100.00;104021.66;5015975;28;20296;-78
2021/12/18 08:09:53;;;;;;;;;;;;;;;4.43;100.00;104023.56;5030054;28;19925;-79
2021/12/18 08:12:19;;;;;;;;;;;;;;;4.36;100.00;104027.16;5018597;28;20294;-78
2021/12/18 08:14:44;;;;;;;;;;;;;;;4.40;100.00;104025.84;5015936;28;19917;-79
2021/12/18 08:17:10;;;;;;;;;;;;;;;4.40;100.00;104026.75;5015626;28;20011;-79
2021/12/18 08:19:36;;;;;;;;;;;;;;;4.45;100.00;104017.75;5015827;28;20214;-78
2021/12/18 08:22:02;;;;;;;;;;;;;;;4.45;100.00;104029.88;5031038;28;20007;-79
2021/12/18 08:24:28;;;;;;;;;;;;;;;4.47;100.00;104025.75;5035486;28;20272;-79
2021/12/18 08:26:53;;;;;;;;;;;;;;;4.51;100.00;104025.34;5033982;28;19999;-79
2021/12/18 08:29:19;;;;;;;;;;;;;;;4.55;100.00;104021.38;5051672;28;19921;-78
2021/12/18 08:31:45;;;;;;;;;;;;;;;4.53;100.00;104029.03;5035040;28;19917;-79
2021/12/18 08:34:11;;;;;;;;;;;;;;;4.54;100.00;104030.91;5035507;28;20015;-79
2021/12/18 08:36:36;;;;;;;;;;;;;;;4.56;100.00;104028.47;5035181;28;19917;-79
2021/12/18 08:39:01;;;;;;;;;;;;;;;4.65;100.00;104030.41;5035849;28;20007;-79
2021/12/18 08:41:27;;;;;;;;;;;;;;;4.66;100.00;104032.25;5033752;28;19963;-79
2021/12/18 08:43:53;;;;;;;;;;;;;;;4.67;100.00;104031.47;5027493;28;19923;-79
2021/12/18 08:46:18;;;;;;;;;;;;;;;4.67;100.00;104034.09;5036062;28;19921;-79
2021/12/18 08:48:43;;;;;;;;;;;;;;;4.72;100.00;104039.81;5027940;28;20370;-79
2021/12/18 08:51:09;;;;;;;;;;;;;;;4.67;100.00;104033.19;5016272;28;20340;-80
2021/12/18 08:53:34;;;;;;;;;;;;;;;4.54;100.00;104038.72;5022392;28;19920;-80
2021/12/18 08:55:59;;;;;;;;;;;;;;;4.63;100.00;104036.19;5053268;28;20472;-80
2021/12/18 08:58:27;;;;;;;;;;;;;;;4.61;100.00;104032.50;5052482;28;19913;-79
2021/12/18 09:00:52;;;;;;;;;;;;;;;4.67;100.00;104034.09;5036032;28;19916;-79
2021/12/18 09:03:18;;;;;;;;;;;;;;;4.68;100.00;104032.44;5033015;28;19927;-80
2021/12/18 09:05:43;;;;;;;;;;;;;;;4.80;100.00;104030.22;5026101;28;19916;-80
2021/12/18 09:08:08;;;;;;;;;;;;;;;4.82;100.00;104032.25;5034472;28;19958;-81
2021/12/18 09:10:34;;;;;;;;;;;;;;;4.78;100.00;104027.44;5036560;28;19923;-80
2021/12/18 09:12:59;;;;;;;;;;;;;;;4.71;100.00;104026.59;5037629;28;20011;-80
2021/12/18 09:15:25;;;;;;;;;;;;;;;4.71;100.00;104030.16;5036608;28;19917;-80
2021/12/18 09:17:50;;;;;;;;;;;;;;;4.65;100.00;104026.88;5054364;28;19959;-81
2021/12/18 09:20:16;;;;;;;;;;;;;;;4.79;100.00;104028.41;5054835;28;19948;-81
2021/12/18 09:22:41;;;;;;;;;;;;;;;4.76;100.00;104041.13;5036869;28;19970;-81
2021/12/18 09:25:07;;;;;;;;;;;;;;;4.80;100.00;104031.19;5036663;28;19920;-80
2021/12/18 09:27:33;;;;;;;;;;;;;;;4.66;100.00;104027.03;5037410;28;19917;-81
2021/12/18 09:29:58;;;;;;;;;;;;;;;4.65;100.00;104032.09;5036063;28;19917;-81
2021/12/18 09:32:23;;;;;;;;;;;;;;;4.63;100.00;104028.38;5036673;28;19956;-81
2021/12/18 09:34:48;;;;;;;;;;;;;;;4.66;100.00;104023.47;5036044;28;19982;-81
2021/12/18 09:37:14;;;;;;;;;;;;;;;4.67;100.00;104023.66;5036993;28;19913;-81
2021/12/18 09:39:39;;;;;;;;;;;;;;;4.76;100.00;104023.75;5036184;28;19952;-80
2021/12/18 09:42:04;;;;;;;;;;;;;;;4.81;100.00;104029.47;5036251;28;19917;-81
2021/12/18 09:44:31;;;;;;;;;;;;;;;4.80;100.00;104030.22;5036083;28;20272;-81
2021/12/18 09:46:57;;;;;;;;;;;;;;;4.78;100.00;104023.94;5035401;28;19947;-81
2021/12/18 09:49:22;;;;;;;;;;;;;;;4.71;100.00;104024.00;5036194;28;19963;-81
2021/12/18 09:51:48;;;;;;;;;;;;;;;4.78;100.00;104019.63;5036499;28;19920;-80
2021/12/18 09:54:13;;;;;;;;;;;;;;;4.53;100.00;104023.81;5036118;28;19943;-81
2021/12/18 09:56:39;;;;;;;;;;;;;;;4.68;100.00;104028.13;5036799;28;19928;-81
2021/12/18 09:59:05;;;;;;;;;;;;;;;4.75;100.00;104015.75;5035954;28;19974;-81
2021/12/18 10:01:30;;;;;;;;;;;;;;;4.70;100.00;104015.25;5035983;28;19924;-81
2021/12/18 10:03:58;;;;;;;;;;;;;;;4.77;100.00;104016.84;5036117;28;20164;-81
2021/12/18 10:06:41;;;;;;;;;;;;;;;4.87;100.00;104014.50;5036086;28;20376;-81
2021/12/18 10:09:07;;;;;;;;;;;;;;;4.72;100.00;104018.03;5035726;28;20007;-81
2021/12/18 10:11:33;;;;;;;;;;;;;;;4.64;100.00;104015.47;5036336;28;19917;-80
2021/12/18 10:14:02;;;;;;;;;;;;;;;4.65;100.00;104009.50;5034687;28;19963;-81
2021/12/18 10:16:28;;;;;;;;;;;;;;;4.65;100.00;104013.81;5036068;28;19917;-81
2021/12/18 10:18:53;;;;;;;;;;;;;;;4.54;100.00;104009.06;5035213;28;19912;-81
2021/12/18 10:21:23;;;;;;;;;;;;;;;4.51;100.00;104004.47;5035331;28;19927;-82
2021/12/18 10:23:49;;;;;;;;;;;;;;;4.57;100.00;104002.53;5035601;28;19917;-81
2021/12/18 10:26:34;;;;;;;;;;;;;;;4.57;100.00;104009.41;5035783;28;19973;-81
2021/12/18 10:29:00;;;;;;;;;;;;;;;4.58;100.00;104012.19;5034565;28;19964;-81
2021/12/18 10:31:43;;;;;;;;;;;;;;;4.62;100.00;104014.41;5035766;28;20330;-81
2021/12/18 10:34:15;;;;;;;;;;;;;;;4.73;100.00;104007.75;5019068;28;19924;-80
2021/12/18 10:36:40;;;;;;;;;;;;;;;4.81;100.00;104008.59;5035387;28;19916;-81
2021/12/18 10:39:06;;;;;;;;;;;;;;;4.85;100.00;104001.28;5035554;28;20291;-81
2021/12/18 10:41:32;;;;;;;;;;;;;;;4.79;100.00;104010.13;5035585;28;19955;-81
2021/12/18 10:44:01;;;;;;;;;;;;;;;4.94;100.00;104009.19;5034200;28;19969;-81
2021/12/18 10:46:27;;;;;;;;;;;;;;;4.88;100.00;104008.53;5035261;28;20387;-81
2021/12/18 10:49:07;;;;;;;;;;;;;;;4.99;100.00;104010.63;5034713;28;19916;-82
2021/12/18 10:51:32;;;;;;;;;;;;;;;5.01;100.00;104011.69;5035156;28;19913;-81
2021/12/18 10:54:03;;;;;;;;;;;;;;;5.01;100.00;104010.78;5035011;28;19947;-80
2021/12/18 10:56:32;;;;;;;;;;;;;;;5.07;100.00;104003.63;5035383;28;19947;-81
2021/12/18 10:58:57;;;;;;;;;;;;;;;4.98;100.00;104005.22;5034793;28;20003;-81
2021/12/18 11:01:23;;;;;;;;;;;;;;;5.12;100.00;104004.13;5035300;28;20008;-81
2021/12/18 11:03:49;;;;;;;;;;;;;;;5.19;100.00;104010.19;5034079;28;20283;-81
2021/12/18 11:06:14;;;;;;;;;;;;;;;5.01;100.00;104005.56;5035152;28;19920;-81
2021/12/18 11:08:59;;;;;;;;;;;;;;;4.85;100.00;104010.81;5053072;28;19923;-80
2021/12/18 11:14:02;;;;;;;;;;;;;;;4.92;100.00;103997.63;5052161;28;20023;-80
2021/12/18 11:16:28;;;;;;;;;;;;;;;4.93;100.00;103999.50;5035233;28;19923;-80
2021/12/18 11:18:56;;;;;;;;;;;;;;;5.07;100.00;103998.41;5034422;28;19995;-81
2021/12/18 11:21:25;;;;;;;;;;;;;;;5.16;100.00;103988.94;5034834;28;19924;-81
2021/12/18 11:23:54;;;;;;;;;;;;;;;5.16;100.00;103998.47;5035033;28;20051;-81
2021/12/18 11:26:21;;;;;;;;;;;;;;;5.16;100.00;103993.25;5034392;28;19921;-81
2021/12/18 11:28:49;;;;;;;;;;;;;;;5.26;100.00;103989.94;5034580;28;20479;-81
2021/12/18 11:31:14;;;;;;;;;;;;;;;5.14;100.00;103992.13;5034657;28;19921;-81
2021/12/18 11:33:40;;;;;;;;;;;;;;;5.27;100.00;103982.25;5040838;28;19916;-82
2021/12/18 11:36:05;;;;;;;;;;;;;;;5.28;100.00;103985.78;5037413;28;19917;-79
2021/12/18 11:38:33;;;;;;;;;;;;;;;5.18;100.00;103992.63;5036790;28;19923;-80
2021/12/18 11:40:59;;;;;;;;;;;;;;;5.09;100.00;103978.56;5036546;28;19917;-79
2021/12/18 11:43:37;;;;;;;;;;;;;;;5.06;100.00;103978.25;5037457;28;20019;-80
2021/12/18 11:46:22;;;;;;;;;;;;;;;5.01;100.00;103979.44;5036173;28;19967;-80
2021/12/18 11:49:15;;;;;;;;;;;;;;;4.99;100.00;103976.66;5036538;28;20015;-80
2021/12/18 11:51:55;;;;;;;;;;;;;;;5.01;100.00;103975.13;5034636;28;19923;-80
2021/12/18 11:54:38;;;;;;;;;;;;;;;5.11;100.00;103968.28;5036779;28;19925;-80
2021/12/18 11:57:03;;;;;;;;;;;;;;;5.11;100.00;103970.91;5036839;28;19943;-81
2021/12/18 11:59:40;;;;;;;;;;;;;;;5.09;100.00;103967.22;5036218;28;19924;-79
2021/12/18 12:02:05;;;;;;;;;;;;;;;4.93;100.00;103964.63;5036527;28;19979;-80
2021/12/18 12:05:09;;;;;;;;;;;;;;;5.03;100.00;103959.63;5036863;28;20348;-80
2021/12/18 12:07:44;;;;;;;;;;;;;;;5.11;100.00;103956.19;4995143;28;19953;-80
2021/12/18 12:10:35;;;;;;;;;;;;;;;5.20;100.00;103958.84;4994052;28;20400;-81
2021/12/18 12:13:03;;;;;;;;;;;;;;;5.15;100.00;103954.81;5023684;28;19919;-80
2021/12/18 12:15:28;;;;;;;;;;;;;;;5.21;100.00;103945.94;5036691;28;19923;-81
2021/12/18 12:17:58;;;;;;;;;;;;;;;5.27;100.00;103948.28;5036397;28;19912;-80
2021/12/18 12:20:34;;;;;;;;;;;;;;;5.11;100.00;103950.00;5036300;28;20315;-81
2021/12/18 12:23:02;;;;;;;;;;;;;;;5.24;100.00;103936.59;5039764;28;19912;-81
2021/12/18 12:25:33;;;;;;;;;;;;;;;5.15;100.00;103939.13;5038691;28;19923;-80
2021/12/18 12:28:04;;;;;;;;;;;;;;;5.16;100.00;103931.47;5035762;28;20028;-80
2021/12/18 12:30:44;;;;;;;;;;;;;;;5.05;100.00;103929.41;5020356;28;19920;-80
2021/12/18 12:33:20;;;;;;;;;;;;;;;5.13;100.00;103938.06;5036373;28;19939;-80
2021/12/18 12:35:56;;;;;;;;;;;;;;;5.22;100.00;103926.91;5036120;28;19917;-79
2021/12/18 12:38:23;;;;;;;;;;;;;;;5.22;100.00;103931.22;5036093;28;20000;-81
2021/12/18 12:40:48;;;;;;;;;;;;;;;5.16;100.00;103920.09;5035733;28;20283;-81
2021/12/18 12:43:21;;;;;;;;;;;;;;;5.13;100.00;103914.53;5036910;28;20003;-81
2021/12/18 12:45:49;;;;;;;;;;;;;;;5.19;100.00;103917.81;5038081;28;20388;-81
2021/12/18 12:48:16;;;;;;;;;;;;;;;5.27;100.00;103910.81;5038247;28;19917;-81
2021/12/18 12:50:41;;;;;;;;;;;;;;;5.12;100.00;103916.22;5037577;28;19998;-81
2021/12/18 12:53:08;;;;;;;;;;;;;;;5.23;100.00;103914.75;5037183;28;20404;-80
2021/12/18 12:55:44;;;;;;;;;;;;;;;5.25;100.00;103907.06;5037171;28;19917;-81
2021/12/18 12:58:16;;;;;;;;;;;;;;;5.21;100.00;103905.84;5037859;28;19927;-80
2021/12/18 13:00:42;;;;;;;;;;;;;;;5.27;100.00;103901.25;5037737;28;20117;-81
2021/12/18 13:03:16;;;;;;;;;;;;;;;5.17;100.00;103901.97;5036886;28;19917;-81
2021/12/18 13:05:49;;;;;;;;;;;;;;;5.18;100.00;103903.81;5037439;28;20220;-80
2021/12/18 13:08:15;;;;;;;;;;;;;;;5.06;100.00;103904.19;5031318;28;19925;-80
2021/12/18 13:10:41;;;;;;;;;;;;;;;4.96;100.00;103908.44;5037024;28;19916;-81
2021/12/18 13:13:10;;;;;;;;;;;;;;;5.02;100.00;103901.25;5037697;28;19917;-80
2021/12/18 13:15:50;;;;;;;;;;;;;;;5.03;100.00;103905.72;5037966;28;19923;-80
2021/12/18 13:18:16;;;;;;;;;;;;;;;4.96;100.00;103897.97;5036675;28;19917;-80
2021/12/18 13:20:48;;;;;;;;;;;;;;;4.91;100.00;103901.78;5036893;28;20380;-81
2021/12/18 13:23:20;;;;;;;;;;;;;;;4.93;100.00;103901.97;5037117;28;20277;-80
2021/12/18 13:25:46;;;;;;;;;;;;;;;4.84;100.00;103896.66;5036427;28;20393;-81